Time;durP1;ratioP1;P1;durP2;ratioP2;P2;SDS_P1;SDS_P2;PMS_P1;PMS_P2;Temp;Humidity;BMP_temperature;BMP_pressure;BME280_temperature;BME280_humidity;BME280_pressure;Samples;Min_cycle;Max_cycle;Signal;HPM_P1;HPM_P2
2022/06/20 00:06:00;;;;;;;6.18;4.40;;;;;;;20.40;73.24;100325.59;31446539;28;20067;-73
2022/06/20 00:21:02;;;;;;;5.30;4.10;;;;;;;20.25;71.02;100324.84;31423090;28;20059;-71
2022/06/20 00:36:05;;;;;;;8.35;5.03;;;;;;;20.26;72.08;100307.84;31427934;28;20056;-72
2022/06/20 00:51:16;;;;;;;8.20;5.00;;;;;;;20.40;77.08;100281.47;31406244;28;20049;-72
2022/06/20 01:06:28;;;;;;;10.60;4.95;;;;;;;20.55;76.57;100286.94;31436550;28;20048;-73
2022/06/20 01:21:34;;;;;;;13.98;5.15;;;;;;;20.53;75.95;100295.69;31444574;28;20049;-72
2022/06/20 01:52:07;;;;;;;10.60;5.53;;;;;;;20.45;76.69;100300.09;31440133;28;20040;-73
2022/06/20 02:07:12;;;;;;;8.48;6.00;;;;;;;20.27;77.56;100301.09;31460992;28;20456;-72
2022/06/20 02:22:17;;;;;;;9.38;6.35;;;;;;;20.00;79.84;100315.97;31453901;28;20523;-72
2022/06/20 02:37:24;;;;;;;11.95;6.95;;;;;;;19.86;81.93;100330.50;31445755;28;20056;-73
2022/06/20 02:52:35;;;;;;;6.63;5.43;;;;;;;20.04;83.85;100332.31;31447356;28;20131;-72
2022/06/20 03:07:37;;;;;;;11.45;6.70;;;;;;;20.24;82.89;100339.88;31438053;28;20048;-72
2022/06/20 03:22:49;;;;;;;8.43;6.10;;;;;;;20.57;83.39;100345.09;31442665;28;20045;-72
2022/06/20 03:37:51;;;;;;;9.90;6.07;;;;;;;21.07;80.97;100342.97;31439184;28;20500;-72
2022/06/20 03:53:08;;;;;;;8.68;5.75;;;;;;;21.77;77.00;100342.69;31442453;28;20040;-72
2022/06/20 04:24:18;;;;;;;9.38;4.47;;;;;;;23.48;69.30;100326.72;31427507;28;20041;-72
2022/06/20 04:39:30;;;;;;;11.13;5.78;;;;;;;24.20;65.83;100327.97;31437860;28;20519;-72
2022/06/20 04:54:33;;;;;;;6.77;5.27;;;;;;;24.87;61.83;100325.00;31434870;28;20052;-71
2022/06/20 05:09:52;;;;;;;8.98;5.82;;;;;;;25.59;58.85;100318.28;31452107;28;20060;-71
2022/06/20 05:24:57;;;;;;;12.40;7.55;;;;;;;26.24;54.79;100320.25;31457726;28;20044;-72
2022/06/20 05:40:02;;;;;;;19.02;7.88;;;;;;;26.81;52.83;100317.09;31447321;28;20052;-73
2022/06/20 05:55:11;;;;;;;7.78;4.68;;;;;;;27.50;49.78;100304.47;31435254;28;20049;-72
2022/06/20 06:10:35;;;;;;;5.68;4.38;;;;;;;27.90;44.84;100302.53;31442343;28;20048;-72
2022/06/20 06:25:42;;;;;;;5.85;3.50;;;;;;;28.37;43.32;100285.22;31441988;28;20056;-71
2022/06/20 06:40:54;;;;;;;11.05;6.60;;;;;;;28.95;39.89;100270.31;31479720;28;20412;-73
2022/06/20 06:56:22;;;;;;;3.67;1.90;;;;;;;29.38;36.60;100256.56;31459929;28;20374;-71
2022/06/20 07:11:26;;;;;;;2.88;1.80;;;;;;;29.95;36.00;100242.69;31447105;28;20056;-80
2022/06/20 07:26:35;;;;;;;2.38;1.83;;;;;;;29.94;33.39;100229.25;31439862;28;20092;-71
2022/06/20 07:41:39;;;;;;;3.95;2.30;;;;;;;30.58;34.19;100229.22;31431471;28;20056;-70
2022/06/20 07:56:48;;;;;;;5.35;4.13;;;;;;;30.73;31.48;100198.44;31422693;28;20057;-71
2022/06/20 08:12:03;;;;;;;2.70;1.87;;;;;;;31.43;31.55;100189.53;31424716;28;20040;-80
2022/06/20 08:27:09;;;;;;;2.90;2.20;;;;;;;31.64;31.73;100178.13;31439321;28;20107;-79
2022/06/20 08:42:28;;;;;;;2.67;1.40;;;;;;;31.46;28.75;100149.16;31421650;28;20126;-76
2022/06/20 08:58:06;;;;;;;11.27;6.88;;;;;;;32.26;29.75;100131.00;31476564;28;20576;-75
2022/06/20 09:13:21;;;;;;;2.35;1.92;;;;;;;32.45;30.96;100111.59;31432567;28;20041;-79
2022/06/20 09:28:47;;;;;;;2.85;2.08;;;;;;;33.08;28.19;100091.63;31454423;28;20056;-78
2022/06/20 09:44:03;;;;;;;2.90;2.10;;;;;;;32.88;29.12;100073.81;31428403;28;20052;-77
2022/06/20 09:59:07;;;;;;;2.40;1.80;;;;;;;34.25;28.13;100077.22;31430197;28;20074;-78
2022/06/20 10:14:33;;;;;;;3.03;1.90;;;;;;;34.25;26.80;100046.97;31488706;28;20063;-82
2022/06/20 10:29:59;;;;;;;6.80;1.90;;;;;;;33.73;27.81;100026.63;31461151;28;20152;-85
2022/06/20 10:45:00;;;;;;;2.63;1.67;;;;;;;33.17;29.29;100006.63;31431558;28;20087;-84
2022/06/20 11:00:13;;;;;;;2.15;1.30;;;;;;;33.00;28.55;100003.81;31443376;28;20409;-83
2022/06/20 11:15:47;;;;;;;2.67;1.70;;;;;;;32.73;28.10;99993.19;31435334;28;20140;-75
2022/06/20 11:32:04;;;;;;;2.28;1.65;;;;;;;31.51;31.00;99965.88;31411233;28;20118;-79
2022/06/20 11:47:47;;;;;;;4.00;1.80;;;;;;;31.35;30.04;99953.25;31328073;28;20044;-75
2022/06/20 12:02:52;;;;;;;1.50;1.30;;;;;;;31.05;29.30;99937.25;31439828;28;20139;-81
2022/06/20 12:18:07;;;;;;;7.88;4.30;;;;;;;31.00;29.71;99929.03;31446835;28;20053;-78
2022/06/20 12:33:10;;;;;;;1.85;1.40;;;;;;;30.86;28.82;99915.25;31424853;28;20475;-77
2022/06/20 12:48:18;;;;;;;1.63;1.40;;;;;;;30.68;27.29;99905.22;31435617;28;20057;-83
2022/06/20 13:03:26;;;;;;;3.33;1.48;;;;;;;30.70;28.92;99880.19;31423990;28;20053;-80
2022/06/20 13:19:16;;;;;;;5.70;1.50;;;;;;;30.58;28.68;99862.28;31403313;28;20053;-78
2022/06/20 13:35:01;;;;;;;4.23;1.70;;;;;;;30.49;29.10;99860.03;31444618;28;20049;-76
2022/06/20 13:50:13;;;;;;;3.15;1.55;;;;;;;30.42;29.74;99827.94;31432951;28;20048;-81
2022/06/20 14:05:22;;;;;;;4.43;1.80;;;;;;;30.32;29.71;99817.88;31440861;28;20040;-79
2022/06/20 14:20:29;;;;;;;1.80;1.60;;;;;;;30.31;30.18;99793.97;31466494;28;20111;-77
2022/06/20 14:35:45;;;;;;;3.88;2.20;;;;;;;30.18;30.34;99786.56;31425339;28;20044;-77
2022/06/20 14:50:50;;;;;;;3.20;1.80;;;;;;;29.96;30.55;99762.13;31457003;28;20500;-76
2022/06/20 15:06:06;;;;;;;3.63;2.30;;;;;;;29.92;30.53;99762.50;31439658;28;20130;-77
2022/06/20 15:21:18;;;;;;;4.65;1.70;;;;;;;29.83;30.27;99735.06;31449402;28;20139;-79
2022/06/20 15:36:32;;;;;;;3.50;1.58;;;;;;;29.72;31.38;99729.88;31442365;28;20055;-80
2022/06/20 15:51:42;;;;;;;4.03;1.80;;;;;;;29.60;31.01;99715.50;31416521;28;20052;-78
2022/06/20 16:06:53;;;;;;;2.67;1.67;;;;;;;29.46;31.69;99714.22;31442340;28;20567;-78
2022/06/20 16:21:59;;;;;;;2.30;1.90;;;;;;;29.30;31.59;99707.84;31439742;28;20055;-79
2022/06/20 16:37:26;;;;;;;1.60;1.45;;;;;;;29.13;32.46;99699.25;31417094;28;20316;-79
2022/06/20 16:52:39;;;;;;;4.80;1.70;;;;;;;28.91;33.87;99699.97;31447193;28;20484;-79
2022/06/20 17:08:06;;;;;;;4.03;1.60;;;;;;;28.38;36.10;99697.72;31458612;28;21460;-79
2022/06/20 17:23:14;;;;;;;4.13;2.10;;;;;;;27.88;37.02;99677.53;31483144;28;20044;-77
2022/06/20 17:38:59;;;;;;;2.63;1.88;;;;;;;27.48;38.83;99669.44;31456737;28;20063;-77
2022/06/20 17:54:13;;;;;;;5.63;2.22;;;;;;;27.14;39.99;99657.66;31464038;28;20075;-77
2022/06/20 18:09:25;;;;;;;3.17;1.90;;;;;;;26.90;40.25;99671.88;31483269;28;20052;-78
2022/06/20 18:24:37;;;;;;;3.78;1.85;;;;;;;26.75;40.68;99667.63;31431517;28;20060;-77
2022/06/20 18:40:10;;;;;;;1.60;1.40;;;;;;;26.49;40.36;99659.34;31458718;28;20427;-78
2022/06/20 18:55:34;;;;;;;3.13;2.20;;;;;;;26.40;40.03;99648.69;31463950;28;20052;-83
2022/06/20 19:10:55;;;;;;;1.75;1.63;;;;;;;26.37;39.79;99649.75;31439681;28;20143;-84
2022/06/20 19:26:09;;;;;;;2.47;2.03;;;;;;;26.22;43.39;99644.00;31447432;28;20044;-81
2022/06/20 19:41:22;;;;;;;2.55;1.80;;;;;;;25.90;48.12;99647.66;31430636;28;20057;-83
2022/06/20 19:56:24;;;;;;;5.40;2.17;;;;;;;25.29;50.94;99646.69;31406374;28;20143;-81
2022/06/20 20:11:29;;;;;;;;;;;;;;;24.77;53.13;99636.94;31420732;28;20543;-80
2022/06/20 20:26:32;;;;;;;5.20;2.78;;;;;;;24.50;51.90;99629.75;31418298;28;20382;-81
2022/06/20 20:42:13;;;;;;;4.63;2.40;;;;;;;24.27;52.72;99609.88;31405383;28;20057;-78
2022/06/20 20:57:29;;;;;;;3.40;2.30;;;;;;;24.12;50.90;99573.50;31432865;28;20049;-79
2022/06/20 21:12:34;;;;;;;2.03;1.80;;;;;;;24.01;48.72;99563.31;31405072;28;20052;-80
2022/06/20 21:27:37;;;;;;;2.03;1.75;;;;;;;23.89;48.22;99545.31;31411423;28;20063;-80
2022/06/20 21:42:48;;;;;;;20.65;11.50;;;;;;;23.62;49.07;99535.34;31428096;28;20135;-80
2022/06/20 21:57:57;;;;;;;3.00;2.35;;;;;;;23.25;50.69;99514.56;31430986;28;20049;-80
2022/06/20 22:13:01;;;;;;;2.55;2.10;;;;;;;23.08;49.94;99509.22;31416008;28;20051;-80
2022/06/20 22:28:14;;;;;;;5.05;2.53;;;;;;;22.87;51.46;99493.56;31465323;28;20056;-80
2022/06/20 22:43:19;;;;;;;4.82;3.10;;;;;;;22.75;53.25;99488.09;31455434;28;20386;-80
2022/06/20 22:58:23;;;;;;;3.28;2.38;;;;;;;22.62;54.02;99490.75;31417375;28;20423;-80
2022/06/20 23:13:27;;;;;;;4.22;2.63;;;;;;;22.47;54.88;99495.88;31463669;28;20055;-79
2022/06/20 23:28:29;;;;;;;3.53;2.40;;;;;;;22.54;54.50;99483.50;31429708;28;20052;-79
2022/06/20 23:43:35;;;;;;;4.63;2.00;;;;;;;22.82;52.41;99466.69;31423611;28;20508;-80
2022/06/20 23:58:40;;;;;;;3.63;2.20;;;;;;;22.92;50.86;99454.75;31439453;28;20041;-80
